Golden Princess — ZCDA9 — position and weather

sailwx.info

Track history (hours):
 
Tides and Currents Weather Stations Pressure Air Temp Water Temp Dewpoint Dewpoint Depression Visibility Wind Speed Wind Dir Waves Ship Positions

Golden Princess

Operator: Princess Cruises

Last reported at 2015-Mar-02 03:27 UTC. Time now 2015-Mar-04 00:17 UTC.
Position S 34°52' W 057°21'.

Length 289.6 m; beam 36 m; draft 8.5 m.

Type: Ship. MMSI: 310344000.

Date/timePositionNaut miles runAvg speedWind from/ knotsBaromVisibWave heightAir tempDewpointWater temp
2015-Mar-02 03:27S 34°52' W 057°21'1011.1
2015-Mar-02 02:34S 34°47' W 057°31'1111.0
2015-Mar-02 01:34S 34°44' W 057°44'1010.4
2015-Mar-02 00:33S 34°41' W 057°57'1312.8
2015-Mar-01 23:33S 34°37' W 058°11'9 8.8
2015-Mar-01 22:33S 34°35' W 058°22'1 0.3
2015-Mar-01 20:05S 34°35' W 058°22'0 0.0
2015-Mar-01 19:29S 34°35' W 058°22'0 0.0
2015-Mar-01 05:29S 34°35' W 058°22'0 0.0
2015-Mar-01 04:31S 34°35' W 058°22'1 0.0
2015-Feb-27 11:08S 34°35' W 058°22'1 2.2
2015-Feb-27 10:33S 34°36' W 058°21'7 7.4
2015-Feb-27 09:34S 34°37' W 058°12'1111.4
2015-Feb-27 08:33S 34°41' W 057°59'9 8.6
2015-Feb-27 07:34S 34°44' W 057°49'9 8.8
2015-Feb-27 06:34S 34°45' W 057°38'9 9.3
2015-Feb-27 05:34S 34°48' W 057°28'20 9.8
2015-Feb-27 03:33S 35°02' W 057°10'1612.5
2015-Feb-27 02:15S 35°10' W 056°53'913.1
2015-Feb-27 01:33S 35°10' W 056°42'2712.5
2015-Feb-26 23:22S 35°08' W 056°08'7 5.9
2015-Feb-26 22:09S 35°01' W 056°05'8 9.8
2015-Feb-26 21:17S 34°56' W 056°13'42 3.2
2015-Feb-26 08:20S 35°23' W 055°35'1620.3
2015-Feb-26 07:33S 35°39' W 055°34'4517.7
2015-Feb-26 05:00S 36°24' W 055°42'10420.8 110 / 331015.710.8 0.521.018.025.0
2015-Feb-26 00:00S 37°54' W 056°48'25521.3 130 / 381019.610.8 0.518.013.122.0
2015-Feb-25 12:00S 40°54' W 060°42'310 7.4 140 / 301024.110.8 0.515.110.621.0
2015-Feb-23 18:00S 46°00' W 061°48'22218.5 260 / 321003.710.8 0.517.011.916.0
2015-Feb-23 06:00S 49°18' W 059°18'187 7.8 320 / 371001.010.8 1.011.5 9.510.0
2015-Feb-22 06:00S 52°24' W 058°42'   270 / 211006.710.8 0.5 8.5 6.510.0
Track history (hours):
 
Tides and Currents Weather Stations Pressure Air Temp Water Temp Dewpoint Dewpoint Depression Visibility Wind Speed Wind Dir Waves Ship Positions

Golden Princess

Operator: Princess Cruises

Last reported at 2015-Mar-02 03:27 UTC. Time now 2015-Mar-04 00:17 UTC.
Position S 34°52' W 057°21'.

Length 289.6 m; beam 36 m; draft 8.5 m.

Type: Ship. MMSI: 310344000.

Date/timePositionNaut miles runAvg speedWind from/ knotsBaromVisibWave heightAir tempDewpointWater temp
2015-Mar-02 03:27S 34°52' W 057°21'1011.1
2015-Mar-02 02:34S 34°47' W 057°31'1111.0
2015-Mar-02 01:34S 34°44' W 057°44'1010.4
2015-Mar-02 00:33S 34°41' W 057°57'1312.8
2015-Mar-01 23:33S 34°37' W 058°11'9 8.8
2015-Mar-01 22:33S 34°35' W 058°22'1 0.3
2015-Mar-01 20:05S 34°35' W 058°22'0 0.0
2015-Mar-01 19:29S 34°35' W 058°22'0 0.0
2015-Mar-01 05:29S 34°35' W 058°22'0 0.0
2015-Mar-01 04:31S 34°35' W 058°22'1 0.0
2015-Feb-27 11:08S 34°35' W 058°22'1 2.2
2015-Feb-27 10:33S 34°36' W 058°21'7 7.4
2015-Feb-27 09:34S 34°37' W 058°12'1111.4
2015-Feb-27 08:33S 34°41' W 057°59'9 8.6
2015-Feb-27 07:34S 34°44' W 057°49'9 8.8
2015-Feb-27 06:34S 34°45' W 057°38'9 9.3
2015-Feb-27 05:34S 34°48' W 057°28'20 9.8
2015-Feb-27 03:33S 35°02' W 057°10'1612.5
2015-Feb-27 02:15S 35°10' W 056°53'913.1
2015-Feb-27 01:33S 35°10' W 056°42'2712.5
2015-Feb-26 23:22S 35°08' W 056°08'7 5.9
2015-Feb-26 22:09S 35°01' W 056°05'8 9.8
2015-Feb-26 21:17S 34°56' W 056°13'42 3.2
2015-Feb-26 08:20S 35°23' W 055°35'1620.3
2015-Feb-26 07:33S 35°39' W 055°34'4517.7
2015-Feb-26 05:00S 36°24' W 055°42'10420.8 110 / 331015.710.8 0.521.018.025.0
2015-Feb-26 00:00S 37°54' W 056°48'25521.3 130 / 381019.610.8 0.518.013.122.0
2015-Feb-25 12:00S 40°54' W 060°42'310 7.4 140 / 301024.110.8 0.515.110.621.0
2015-Feb-23 18:00S 46°00' W 061°48'22218.5 260 / 321003.710.8 0.517.011.916.0
2015-Feb-23 06:00S 49°18' W 059°18'187 7.8 320 / 371001.010.8 1.011.5 9.510.0
2015-Feb-22 06:00S 52°24' W 058°42'   270 / 211006.710.8 0.5 8.5 6.510.0

Dump ship's entire track history